createdAt,value
2022-10-12T00:03:37.110Z,7.70
2022-10-12T00:10:42.151Z,8.02
2022-10-12T00:17:43.697Z,8.73
2022-10-12T00:24:45.239Z,8.15
2022-10-12T00:31:46.786Z,7.85
2022-10-12T00:38:48.809Z,8.60
2022-10-12T00:45:50.381Z,7.20
2022-10-12T00:53:12.817Z,8.18
2022-10-12T01:00:14.786Z,8.15
2022-10-12T01:07:16.350Z,7.88
2022-10-12T01:14:17.884Z,8.32
2022-10-12T01:21:20.814Z,7.85
2022-10-12T01:28:44.045Z,8.80
2022-10-12T01:35:51.370Z,8.35
2022-10-12T01:42:52.940Z,8.85
2022-10-12T01:49:54.502Z,8.52
2022-10-12T01:57:31.214Z,7.68
2022-10-12T02:04:47.845Z,8.25
2022-10-12T02:11:50.203Z,8.75
2022-10-12T02:18:53.043Z,8.18
2022-10-12T02:25:54.628Z,8.50
2022-10-12T02:33:03.630Z,8.40
2022-10-12T02:40:20.011Z,8.50
2022-10-12T02:47:22.376Z,7.72
2022-10-12T02:54:23.990Z,7.55
2022-10-12T03:01:25.610Z,8.45
2022-10-12T03:08:27.173Z,7.85
2022-10-12T03:15:28.773Z,7.25
2022-10-12T03:22:30.660Z,7.22
2022-10-12T03:29:32.204Z,7.47
2022-10-12T03:36:33.795Z,7.00
2022-10-12T03:43:35.338Z,6.60
2022-10-12T03:50:36.955Z,6.43
2022-10-12T03:57:38.745Z,7.50
2022-10-12T04:04:40.520Z,6.80
2022-10-12T04:11:42.097Z,7.38
2022-10-12T04:18:43.727Z,6.68
2022-10-12T04:25:45.249Z,7.30
2022-10-12T04:32:46.789Z,7.93
2022-10-12T04:39:48.362Z,6.70
2022-10-12T04:46:50.159Z,6.93
2022-10-12T04:53:51.780Z,6.85
2022-10-12T05:00:53.302Z,6.85
2022-10-12T05:07:55.021Z,7.07
2022-10-12T05:14:56.615Z,5.15
2022-10-12T05:21:58.174Z,5.80
2022-10-12T05:28:59.825Z,6.00
2022-10-12T05:36:01.389Z,6.68
2022-10-12T05:43:02.956Z,5.50
2022-10-12T05:50:04.844Z,5.18
2022-10-12T05:57:06.423Z,5.90
2022-10-12T06:04:08.007Z,5.55
2022-10-12T06:11:09.567Z,5.35
2022-10-12T06:18:11.112Z,6.78
2022-10-12T06:25:12.681Z,6.10
2022-10-12T06:32:14.320Z,6.70
2022-10-12T06:39:15.879Z,6.47
2022-10-12T06:46:17.442Z,6.60
2022-10-12T06:53:19.441Z,7.22
2022-10-12T07:00:21.061Z,6.15
2022-10-12T07:07:22.621Z,6.38
2022-10-12T07:14:24.201Z,5.32
2022-10-12T07:21:25.893Z,5.15
2022-10-12T07:28:28.644Z,5.80
2022-10-12T07:35:30.377Z,5.05
2022-10-12T07:42:31.961Z,5.25
2022-10-12T07:49:33.548Z,4.80
2022-10-12T07:56:35.186Z,5.05
2022-10-12T08:03:36.999Z,4.82
2022-10-12T08:10:38.543Z,5.10
2022-10-12T08:17:40.551Z,4.57
2022-10-12T08:24:42.463Z,4.65
2022-10-12T08:31:44.040Z,4.22
2022-10-12T08:38:54.008Z,4.40
2022-10-12T08:53:05.183Z,3.83
2022-10-12T09:00:09.916Z,4.32
2022-10-12T09:07:31.397Z,6.72
2022-10-12T09:14:34.143Z,3.75
2022-10-12T09:21:35.755Z,3.97
2022-10-12T09:28:45.283Z,4.63
2022-10-12T09:35:47.345Z,3.55
2022-10-12T09:42:48.927Z,3.58
2022-10-12T09:49:51.969Z,4.07
2022-10-12T09:56:55.171Z,3.50
2022-10-12T10:04:23.930Z,2.70
2022-10-12T10:11:27.227Z,3.13
2022-10-12T10:18:34.031Z,2.88
2022-10-12T10:25:35.637Z,2.60
2022-10-12T10:32:37.189Z,2.30
2022-10-12T10:39:46.534Z,2.30
2022-10-12T10:46:48.087Z,2.30
2022-10-12T10:53:51.278Z,2.33
2022-10-12T11:00:53.518Z,2.58
2022-10-12T11:07:56.645Z,2.30
2022-10-12T11:15:35.738Z,2.50
2022-10-12T11:22:49.169Z,2.67
2022-10-12T11:30:08.501Z,2.00
2022-10-12T11:37:20.962Z,2.58
2022-10-12T11:44:41.348Z,2.42
2022-10-12T11:51:47.321Z,2.33
2022-10-12T11:59:00.417Z,3.05
2022-10-12T12:06:42.158Z,2.53
2022-10-12T12:13:43.724Z,2.50
2022-10-12T12:20:45.311Z,2.75
2022-10-12T12:27:47.846Z,2.17
2022-10-12T12:35:00.479Z,2.80
2022-10-12T12:42:11.939Z,2.47
2022-10-12T12:49:40.408Z,3.05
2022-10-12T12:56:45.121Z,2.33
2022-10-12T13:04:00.754Z,2.42
2022-10-12T13:11:02.291Z,2.42
2022-10-12T13:18:48.851Z,5.43
2022-10-12T13:25:56.955Z,2.50
2022-10-12T13:33:04.327Z,2.15
2022-10-12T13:40:06.339Z,2.08
2022-10-12T13:47:41.713Z,2.13
2022-10-12T13:54:46.091Z,2.53
2022-10-12T14:01:55.075Z,2.00
2022-10-12T14:09:06.189Z,2.10
2022-10-12T14:16:07.744Z,2.20
2022-10-12T14:23:15.943Z,2.33
2022-10-12T14:30:18.757Z,2.08
2022-10-12T14:37:24.033Z,2.22
2022-10-12T14:44:27.025Z,1.80
2022-10-12T14:51:28.815Z,2.10
2022-10-12T14:58:30.441Z,2.30
2022-10-12T15:05:32.828Z,2.20
2022-10-12T15:12:34.515Z,2.00
2022-10-12T15:19:36.144Z,2.20
2022-10-12T15:26:42.076Z,2.85
2022-10-12T15:33:43.966Z,2.33
2022-10-12T15:40:46.170Z,2.45
2022-10-12T15:47:48.133Z,2.17
2022-10-12T15:54:49.909Z,3.17
2022-10-12T16:01:51.453Z,2.42
2022-10-12T16:08:53.059Z,10.10
2022-10-12T16:15:54.595Z,2.60
2022-10-12T16:22:56.147Z,3.17
2022-10-12T16:29:57.840Z,3.80
2022-10-12T16:37:00.236Z,3.40
2022-10-12T16:44:01.905Z,3.75
2022-10-12T16:51:08.217Z,3.85
2022-10-12T16:58:09.788Z,4.00
2022-10-12T17:05:11.370Z,7.88
2022-10-12T17:12:13.206Z,3.78
2022-10-12T17:19:27.427Z,4.63
2022-10-12T17:26:29.127Z,6.55
2022-10-12T17:33:31.509Z,6.32
2022-10-12T17:40:33.051Z,4.10
2022-10-12T17:47:34.685Z,4.30
2022-10-12T17:54:36.814Z,5.30
2022-10-12T18:01:38.910Z,3.58
2022-10-12T18:08:40.536Z,4.10
2022-10-12T18:15:43.507Z,4.47
2022-10-12T18:22:45.095Z,4.47
2022-10-12T18:29:47.119Z,4.75
2022-10-12T18:36:48.752Z,3.70
2022-10-12T18:43:55.114Z,4.30
2022-10-12T18:50:57.483Z,3.75
2022-10-12T18:57:59.058Z,3.42
2022-10-12T19:05:00.603Z,4.20
2022-10-12T19:12:02.251Z,4.55
2022-10-12T19:19:06.107Z,3.90
2022-10-12T19:26:18.962Z,4.28
2022-10-12T19:33:20.924Z,4.13
2022-10-12T19:40:22.505Z,5.38
2022-10-12T19:47:24.138Z,4.10
2022-10-12T19:54:25.773Z,4.03
2022-10-12T20:01:37.137Z,4.30
2022-10-12T20:08:39.665Z,4.38
2022-10-12T20:15:41.278Z,3.95
2022-10-12T20:22:42.831Z,3.97
2022-10-12T20:29:44.509Z,4.60
2022-10-12T20:36:46.123Z,5.07
2022-10-12T20:43:47.732Z,4.10
2022-10-12T20:50:49.317Z,3.60
2022-10-12T20:57:50.880Z,3.92
2022-10-12T21:04:52.444Z,3.97
2022-10-12T21:11:54.128Z,4.18
2022-10-12T21:18:55.783Z,3.97
2022-10-12T21:25:57.414Z,4.55
2022-10-12T21:32:58.951Z,3.90
2022-10-12T21:40:00.543Z,5.45
2022-10-12T21:47:02.087Z,4.00
2022-10-12T21:54:04.786Z,4.07
2022-10-12T22:01:07.836Z,4.10
2022-10-12T22:08:09.700Z,4.22
2022-10-12T22:15:11.788Z,4.82
2022-10-12T22:22:13.344Z,4.53
2022-10-12T22:29:14.986Z,4.60
2022-10-12T22:36:16.788Z,4.70
2022-10-12T22:43:18.448Z,3.90
2022-10-12T22:50:20.051Z,3.65
2022-10-12T22:57:21.688Z,3.95
2022-10-12T23:04:23.249Z,3.97
2022-10-12T23:11:26.330Z,3.90
2022-10-12T23:18:28.075Z,4.10
2022-10-12T23:25:29.623Z,4.38
2022-10-12T23:32:31.417Z,3.70
2022-10-12T23:39:33.023Z,3.97
2022-10-12T23:46:34.593Z,4.05
2022-10-12T23:53:36.523Z,3.40
